Time;durP1;ratioP1;P1;durP2;ratioP2;P2;SDS_P1;SDS_P2;PMS_P1;PMS_P2;Temp;Humidity;BMP_temperature;BMP_pressure;BME280_temperature;BME280_humidity;BME280_pressure;Samples;Min_cycle;Max_cycle;Signal;HPM_P1;HPM_P2
2024/03/24 00:00:03;;;;;;;5.93;2.78;;;;;;;14.16;44.24;96559.25;4957323;28;20118;-72
2024/03/24 00:02:29;;;;;;;4.38;3.00;;;;;;;14.05;44.63;96551.31;4963961;28;20031;-74
2024/03/24 00:04:54;;;;;;;8.70;3.53;;;;;;;13.92;45.18;96556.13;4966891;28;20035;-73
2024/03/24 00:07:20;;;;;;;6.18;3.38;;;;;;;13.86;45.16;96556.69;4971869;28;20035;-74
2024/03/24 00:09:46;;;;;;;5.82;3.17;;;;;;;13.89;44.95;96553.72;4955729;28;20038;-74
2024/03/24 00:12:11;;;;;;;5.97;3.53;;;;;;;13.80;45.54;96568.00;4971600;28;20441;-74
2024/03/24 00:14:37;;;;;;;5.43;3.22;;;;;;;13.58;45.79;96551.13;4971721;28;20030;-73
2024/03/24 00:17:03;;;;;;;7.88;4.65;;;;;;;13.44;46.56;96559.53;4955516;28;20040;-73
2024/03/24 00:19:29;;;;;;;6.22;3.58;;;;;;;13.34;46.93;96565.88;4968860;28;20031;-73
2024/03/24 00:21:54;;;;;;;7.97;4.35;;;;;;;13.29;46.78;96568.97;4960520;28;20039;-74
2024/03/24 00:24:20;;;;;;;7.82;4.13;;;;;;;13.22;47.40;96572.34;4961749;28;20093;-72
2024/03/24 00:26:45;;;;;;;7.80;4.38;;;;;;;13.04;47.71;96554.13;4963672;28;20077;-73
2024/03/24 00:29:11;;;;;;;9.45;3.88;;;;;;;13.08;47.92;96560.13;4972506;28;20042;-73
2024/03/24 00:31:37;;;;;;;7.60;3.72;;;;;;;13.10;48.06;96555.47;4961023;28;20031;-73
2024/03/24 00:34:02;;;;;;;5.20;3.20;;;;;;;13.23;47.35;96555.22;4936331;29;20038;-73
2024/03/24 00:36:28;;;;;;;8.15;3.78;;;;;;;13.12;48.04;96556.19;4969676;28;20031;-73
2024/03/24 00:38:53;;;;;;;8.65;4.70;;;;;;;13.00;48.76;96551.88;4958058;28;20094;-73
2024/03/24 00:41:19;;;;;;;9.15;4.85;;;;;;;12.87;48.98;96568.19;4959804;28;20419;-73
2024/03/24 00:43:45;;;;;;;5.95;3.97;;;;;;;12.81;49.05;96562.50;4953336;28;20031;-72
2024/03/24 00:46:11;;;;;;;8.82;4.32;;;;;;;12.92;49.00;96554.38;4943582;28;20034;-73
2024/03/24 00:48:36;;;;;;;6.95;3.92;;;;;;;12.93;49.03;96556.06;4952095;28;20033;-73
2024/03/24 00:51:02;;;;;;;13.00;6.40;;;;;;;12.92;49.34;96568.63;4958347;28;20098;-73
2024/03/24 00:53:28;;;;;;;14.82;5.95;;;;;;;12.80;49.93;96566.16;4954938;28;20027;-73
2024/03/24 00:55:54;;;;;;;11.40;6.13;;;;;;;12.64;50.45;96561.28;4972577;28;20505;-73
2024/03/24 00:58:20;;;;;;;8.32;4.25;;;;;;;12.61;50.34;96556.19;4970422;28;20042;-72
2024/03/24 01:00:46;;;;;;;14.48;5.15;;;;;;;12.53;50.84;96553.28;4951727;28;20042;-73
2024/03/24 01:03:12;;;;;;;6.70;3.65;;;;;;;12.71;50.06;96548.16;4952172;28;20086;-73
2024/03/24 01:05:37;;;;;;;7.40;4.07;;;;;;;12.75;49.81;96531.69;4959583;28;20038;-73
2024/03/24 01:08:04;;;;;;;4.32;3.03;;;;;;;12.75;49.55;96538.88;4949613;28;20034;-74
2024/03/24 01:10:29;;;;;;;7.75;3.58;;;;;;;12.86;50.19;96544.16;4969400;28;20034;-73
2024/03/24 01:12:55;;;;;;;6.68;3.95;;;;;;;12.88;50.02;96532.31;4951391;28;20049;-72
2024/03/24 01:15:21;;;;;;;7.47;3.42;;;;;;;12.95;50.08;96525.41;4951433;28;20027;-74
2024/03/24 01:17:46;;;;;;;5.47;3.30;;;;;;;12.97;50.37;96530.66;4952609;28;20584;-72
2024/03/24 01:20:13;;;;;;;6.05;3.38;;;;;;;12.82;50.83;96522.13;4951701;28;20504;-72
2024/03/24 01:22:40;;;;;;;7.60;3.97;;;;;;;12.85;50.48;96523.69;4951359;28;20085;-73
2024/03/24 01:25:06;;;;;;;7.15;3.95;;;;;;;12.89;50.37;96517.03;4948948;28;20030;-73
2024/03/24 01:27:32;;;;;;;5.43;3.33;;;;;;;12.81;50.73;96508.81;4970417;28;20055;-72
2024/03/24 01:29:58;;;;;;;8.85;3.63;;;;;;;12.79;51.30;96508.13;4966113;28;20041;-74
2024/03/24 01:32:23;;;;;;;6.75;3.50;;;;;;;12.79;50.95;96506.28;4951827;28;20041;-74
2024/03/24 01:34:49;;;;;;;7.68;3.75;;;;;;;12.81;51.95;96506.13;4953652;28;20042;-74
2024/03/24 01:37:15;;;;;;;7.80;4.20;;;;;;;12.76;52.36;96511.94;4955396;28;20023;-72
2024/03/24 01:39:46;;;;;;;7.80;3.60;;;;;;;12.84;51.64;96503.19;4971739;28;20034;-73
2024/03/24 01:42:12;;;;;;;8.00;3.53;;;;;;;12.93;51.08;96497.00;4957547;28;20026;-74
2024/03/24 01:44:37;;;;;;;6.55;3.33;;;;;;;12.97;51.20;96493.09;4957983;28;20023;-74
2024/03/24 01:47:03;;;;;;;5.95;3.78;;;;;;;12.90;52.00;96495.44;4957412;28;20027;-74
2024/03/24 01:49:29;;;;;;;6.20;3.72;;;;;;;12.83;52.02;96490.75;4943423;28;20027;-74
2024/03/24 01:51:54;;;;;;;6.10;3.42;;;;;;;12.75;52.59;96499.47;4970248;28;20061;-72
2024/03/24 01:54:20;;;;;;;8.90;3.78;;;;;;;12.73;53.28;96492.56;4958300;28;20484;-72
2024/03/24 01:56:46;;;;;;;7.22;3.67;;;;;;;12.74;54.10;96499.59;4969141;28;20030;-72
2024/03/24 01:59:13;;;;;;;6.45;3.45;;;;;;;12.68;53.00;96509.03;4971308;28;20114;-73
2024/03/24 02:01:40;;;;;;;6.80;3.75;;;;;;;12.68;53.59;96503.69;4953145;28;20019;-72
2024/03/24 02:04:09;;;;;;;6.07;3.53;;;;;;;12.68;53.46;96486.72;4968892;28;20034;-73
2024/03/24 02:06:35;;;;;;;5.70;3.35;;;;;;;12.77;52.91;96492.13;4956367;28;20042;-73
2024/03/24 02:09:01;;;;;;;5.57;3.50;;;;;;;12.87;52.72;96489.50;4950742;28;20118;-73
2024/03/24 02:11:28;;;;;;;11.02;4.22;;;;;;;12.82;52.88;96481.88;4958203;28;20113;-73
2024/03/24 02:13:57;;;;;;;7.88;3.80;;;;;;;12.86;52.74;96494.00;4971121;28;20038;-73
2024/03/24 02:16:23;;;;;;;6.40;3.40;;;;;;;12.86;52.47;96479.75;4954030;28;20038;-72
2024/03/24 02:18:48;;;;;;;5.50;3.53;;;;;;;12.95;52.35;96479.78;4973932;28;20566;-73
2024/03/24 02:21:14;;;;;;;5.97;3.45;;;;;;;12.94;52.23;96482.63;4973743;28;20380;-73
2024/03/24 02:23:40;;;;;;;5.22;3.35;;;;;;;12.97;52.21;96468.94;4973740;28;20031;-73
2024/03/24 02:26:05;;;;;;;5.82;3.38;;;;;;;13.02;52.02;96462.16;4957338;28;20031;-73
2024/03/24 02:28:31;;;;;;;7.13;3.90;;;;;;;13.13;51.71;96466.63;4966899;28;20043;-73
2024/03/24 02:30:56;;;;;;;4.95;3.40;;;;;;;13.13;51.84;96461.25;4973400;28;20035;-74
2024/03/24 02:33:22;;;;;;;5.15;3.15;;;;;;;13.13;51.95;96455.88;4974934;28;20066;-73
2024/03/24 02:35:49;;;;;;;11.45;3.47;;;;;;;13.09;52.56;96454.44;4966839;28;20023;-72
2024/03/24 02:38:15;;;;;;;8.10;3.75;;;;;;;13.07;52.83;96456.38;4952409;28;20099;-74
2024/03/24 02:40:41;;;;;;;9.32;3.58;;;;;;;13.12;52.52;96459.53;4967894;28;20576;-72
2024/03/24 02:43:07;;;;;;;7.03;3.75;;;;;;;13.13;52.99;96455.88;4968094;28;20431;-74
2024/03/24 02:45:32;;;;;;;6.55;3.22;;;;;;;13.07;53.31;96445.66;4974829;28;20082;-72
2024/03/24 02:47:58;;;;;;;7.45;3.60;;;;;;;13.15;52.95;96459.25;4938948;28;20411;-72
2024/03/24 02:50:23;;;;;;;6.53;3.67;;;;;;;13.19;52.87;96449.94;4955064;28;20037;-73
2024/03/24 02:52:49;;;;;;;8.82;3.72;;;;;;;13.18;53.35;96463.50;4960576;28;20026;-73
2024/03/24 02:55:15;;;;;;;5.72;3.47;;;;;;;13.14;53.44;96451.31;4972753;28;20027;-73
2024/03/24 02:57:42;;;;;;;5.78;3.75;;;;;;;13.23;53.18;96456.72;4973061;28;20030;-73
2024/03/24 03:00:11;;;;;;;4.82;3.38;;;;;;;13.25;53.25;96462.81;4972866;28;20446;-72
2024/03/24 03:02:36;;;;;;;6.28;3.70;;;;;;;13.24;53.84;96469.19;4973162;28;20027;-73
2024/03/24 03:05:02;;;;;;;11.95;4.40;;;;;;;13.24;54.05;96469.19;4973102;28;20483;-74
2024/03/24 03:07:28;;;;;;;7.10;3.80;;;;;;;13.28;54.51;96467.91;4972837;28;20023;-72
2024/03/24 03:09:54;;;;;;;7.93;4.05;;;;;;;13.28;55.61;96478.66;4956817;28;20023;-73
2024/03/24 03:12:20;;;;;;;10.90;4.93;;;;;;;13.37;54.29;96468.91;4959332;28;20109;-73
2024/03/24 03:14:46;;;;;;;7.10;4.97;;;;;;;13.33;54.49;96460.28;4967609;28;20626;-73
2024/03/24 03:17:12;;;;;;;14.63;4.20;;;;;;;13.41;54.44;96473.84;4937362;28;20114;-73
2024/03/24 03:19:37;;;;;;;6.90;4.30;;;;;;;13.32;54.71;96455.06;4954897;28;20099;-73
2024/03/24 03:22:03;;;;;;;10.85;4.43;;;;;;;13.34;55.29;96474.56;4958304;28;20468;-74
2024/03/24 03:24:29;;;;;;;8.50;3.95;;;;;;;13.30;54.76;96468.63;4964518;28;20606;-73
2024/03/24 03:26:55;;;;;;;11.10;4.15;;;;;;;13.24;55.54;96465.63;4956487;28;20447;-73
2024/03/24 03:29:20;;;;;;;8.25;4.20;;;;;;;13.20;56.33;96473.09;4963315;28;20057;-74
2024/03/24 03:31:46;;;;;;;15.77;4.47;;;;;;;13.10;56.75;96464.19;4955519;28;20122;-73
2024/03/24 03:34:12;;;;;;;10.57;4.95;;;;;;;12.98;59.22;96486.75;4969645;28;20406;-73
2024/03/24 03:36:38;;;;;;;11.90;4.60;;;;;;;12.87;59.56;96486.81;4956905;28;20027;-73
2024/03/24 03:39:06;;;;;;;13.77;4.40;;;;;;;12.80;61.84;96491.00;4953144;28;20031;-71
2024/03/24 03:41:32;;;;;;;5.13;2.97;;;;;;;12.86;60.20;96482.41;4969056;28;20479;-72
2024/03/24 03:43:58;;;;;;;9.13;3.63;;;;;;;13.23;58.64;96480.88;4949060;28;20172;-73
2024/03/24 03:46:23;;;;;;;5.80;3.60;;;;;;;13.34;57.68;96483.47;4956801;28;20348;-73
2024/03/24 03:48:49;;;;;;;6.70;4.35;;;;;;;13.34;58.14;96479.94;4957069;28;20038;-74
2024/03/24 03:51:27;;;;;;;6.57;4.10;;;;;;;13.24;58.92;96471.84;4952695;28;20462;-73
2024/03/24 03:53:55;;;;;;;7.40;4.38;;;;;;;13.17;59.52;96486.81;4938422;28;20431;-74
2024/03/24 03:56:20;;;;;;;8.43;4.18;;;;;;;13.33;58.39;96481.78;4954108;28;20464;-72
2024/03/24 03:58:46;;;;;;;8.63;4.05;;;;;;;13.27;58.43;96482.31;4966978;28;20038;-74
2024/03/24 04:01:12;;;;;;;8.45;4.45;;;;;;;13.23;58.65;96483.56;4959710;28;20027;-73
2024/03/24 04:03:37;;;;;;;9.90;4.53;;;;;;;13.11;59.68;96482.00;4951209;28;20081;-74
2024/03/24 04:06:04;;;;;;;8.20;3.97;;;;;;;12.95;61.03;96479.78;4950763;28;20041;-74
2024/03/24 04:08:29;;;;;;;11.65;4.50;;;;;;;12.92;61.71;96485.41;4967677;28;20376;-74
2024/03/24 04:10:55;;;;;;;6.07;4.07;;;;;;;12.80;62.13;96474.91;4969292;28;20042;-74
2024/03/24 04:13:20;;;;;;;7.75;4.70;;;;;;;12.76;63.66;96473.50;4969109;28;20042;-72
2024/03/24 04:15:46;;;;;;;8.38;4.30;;;;;;;12.68;63.51;96467.94;4951031;28;20093;-72
2024/03/24 04:18:12;;;;;;;7.80;4.95;;;;;;;12.70;63.24;96491.00;4966060;28;20092;-73
2024/03/24 04:20:38;;;;;;;7.18;4.70;;;;;;;12.69;63.89;96485.75;4959946;28;20096;-73
2024/03/24 04:23:04;;;;;;;13.27;5.10;;;;;;;12.65;67.11;96495.03;4961667;28;20045;-73
2024/03/24 04:25:29;;;;;;;6.85;4.50;;;;;;;12.57;67.99;96490.34;4962695;28;20030;-74
2024/03/24 04:27:55;;;;;;;8.23;4.97;;;;;;;12.45;70.33;96503.00;4965078;28;20062;-73
2024/03/24 04:30:21;;;;;;;9.00;5.07;;;;;;;12.36;69.02;96503.78;4946621;28;20035;-73
2024/03/24 04:32:46;;;;;;;9.45;5.45;;;;;;;12.30;72.36;96498.97;4935095;28;20031;-74
2024/03/24 04:35:12;;;;;;;8.38;5.15;;;;;;;12.16;73.38;96499.25;4962240;28;20029;-74
2024/03/24 04:37:38;;;;;;;7.43;4.57;;;;;;;12.13;72.50;96502.22;4961748;28;20025;-74
2024/03/24 04:40:08;;;;;;;8.73;4.20;;;;;;;12.18;72.14;96505.34;4953016;28;20026;-73
2024/03/24 04:42:35;;;;;;;7.88;3.95;;;;;;;12.27;68.41;96511.78;4965329;28;20109;-75
2024/03/24 04:45:01;;;;;;;7.93;4.10;;;;;;;12.30;69.40;96525.78;4941466;28;20031;-73
2024/03/24 04:47:30;;;;;;;13.13;5.10;;;;;;;12.28;71.96;96532.22;4960819;28;20046;-73
2024/03/24 04:49:56;;;;;;;9.32;3.78;;;;;;;12.33;69.18;96533.56;4954745;28;20039;-74
2024/03/24 04:52:22;;;;;;;6.60;4.32;;;;;;;12.44;67.27;96538.84;4954807;28;20038;-75
2024/03/24 04:54:47;;;;;;;6.00;3.92;;;;;;;12.44;68.52;96533.47;4963219;28;20509;-73
2024/03/24 04:57:13;;;;;;;5.55;3.70;;;;;;;12.49;66.75;96541.09;4952907;28;20125;-73
2024/03/24 04:59:38;;;;;;;11.50;4.30;;;;;;;12.49;67.44;96547.34;4957955;28;20046;-73
2024/03/24 05:02:04;;;;;;;9.57;4.10;;;;;;;12.54;66.63;96548.78;4963017;28;20027;-73
2024/03/24 05:04:30;;;;;;;10.18;4.25;;;;;;;12.54;67.21;96554.16;4958294;28;20030;-73
2024/03/24 05:06:59;;;;;;;7.97;4.20;;;;;;;12.59;68.40;96547.41;4958670;28;20038;-73
2024/03/24 05:09:25;;;;;;;7.95;5.00;;;;;;;12.56;67.91;96541.44;4969541;28;20113;-76
2024/03/24 05:11:51;;;;;;;11.80;4.85;;;;;;;12.67;68.07;96549.44;4963811;28;20113;-79
2024/03/24 05:14:17;;;;;;;12.40;5.50;;;;;;;12.69;67.79;96542.09;4948979;28;20026;-77
2024/03/24 05:16:42;;;;;;;8.80;4.95;;;;;;;12.85;69.37;96558.56;4948803;28;20062;-78
2024/03/24 05:19:08;;;;;;;7.78;4.90;;;;;;;13.12;68.13;96550.81;4953867;28;20458;-77
2024/03/24 05:21:37;;;;;;;12.77;6.03;;;;;;;13.54;65.83;96541.63;4931798;28;20031;-78
2024/03/24 05:24:07;;;;;;;9.10;4.63;;;;;;;14.12;61.67;96552.44;4950789;28;20054;-77
2024/03/24 05:26:33;;;;;;;12.93;5.45;;;;;;;14.87;58.91;96539.09;4968170;28;20100;-78
2024/03/24 05:29:02;;;;;;;12.52;5.65;;;;;;;15.96;55.39;96528.38;4966903;28;20066;-78
2024/03/24 05:31:27;;;;;;;8.40;4.80;;;;;;;16.89;51.89;96517.00;4932885;28;20031;-77
2024/03/24 05:33:53;;;;;;;8.68;5.00;;;;;;;17.62;49.73;96515.56;4956658;28;20074;-76
2024/03/24 05:36:19;;;;;;;9.82;5.13;;;;;;;18.37;47.64;96511.81;4952997;28;20044;-78
2024/03/24 05:38:44;;;;;;;9.40;4.45;;;;;;;19.16;46.15;96510.25;4950106;28;20031;-79
2024/03/24 05:41:11;;;;;;;12.75;4.50;;;;;;;19.67;44.08;96507.03;4942865;28;20455;-77
2024/03/24 05:43:37;;;;;;;26.55;15.25;;;;;;;20.39;42.94;96500.38;4943600;28;20022;-79
2024/03/24 05:46:06;;;;;;;8.18;4.90;;;;;;;20.78;42.28;96491.19;4948671;28;20034;-79
2024/03/24 05:48:34;;;;;;;6.72;4.20;;;;;;;21.32;40.81;96475.56;4930766;28;20110;-77
2024/03/24 05:51:01;;;;;;;6.95;4.18;;;;;;;21.27;39.74;96476.09;4951959;28;20041;-78
2024/03/24 05:53:27;;;;;;;9.88;6.30;;;;;;;20.65;40.74;96480.09;4968137;28;20035;-81
2024/03/24 05:55:52;;;;;;;14.38;8.13;;;;;;;20.25;42.25;96497.53;4961842;28;20035;-79
2024/03/24 05:58:18;;;;;;;15.48;9.30;;;;;;;21.12;40.48;96486.13;4937183;28;20070;-78
2024/03/24 06:00:47;;;;;;;23.20;13.90;;;;;;;21.74;39.47;96478.41;4954755;28;20035;-79
2024/03/24 06:03:13;;;;;;;7.55;4.63;;;;;;;22.13;38.80;96491.69;4973390;28;20031;-79
2024/03/24 06:05:40;;;;;;;45.05;26.92;;;;;;;21.72;39.32;96483.19;4967564;28;20037;-79
2024/03/24 06:08:08;;;;;;;107.75;65.88;;;;;;;21.79;39.14;96478.69;4952795;28;20149;-78
2024/03/24 06:10:34;;;;;;;22.67;12.45;;;;;;;21.67;38.39;96471.19;4952413;28;20031;-78
2024/03/24 06:13:00;;;;;;;30.38;18.73;;;;;;;21.75;38.79;96480.09;4971536;28;20436;-78
2024/03/24 06:15:26;;;;;;;10.73;5.50;;;;;;;21.45;38.57;96473.00;4968407;28;20478;-78
2024/03/24 06:17:51;;;;;;;7.40;4.63;;;;;;;21.72;37.61;96471.47;4966026;28;20030;-78
2024/03/24 06:20:17;;;;;;;11.93;6.53;;;;;;;21.94;37.79;96467.78;4964586;28;20109;-77
2024/03/24 06:22:42;;;;;;;9.82;4.90;;;;;;;22.23;36.92;96458.69;4971452;28;20077;-78
2024/03/24 06:25:08;;;;;;;10.18;7.97;;;;;;;22.36;36.91;96469.72;4955047;28;20481;-75
2024/03/24 06:27:35;;;;;;;22.70;12.60;;;;;;;22.96;36.33;96458.31;4960872;28;20044;-79
2024/03/24 06:30:01;;;;;;;27.30;14.82;;;;;;;23.10;36.54;96460.94;4966442;28;20041;-78
2024/03/24 06:32:27;;;;;;;20.67;13.07;;;;;;;23.69;35.50;96464.03;4958045;28;20113;-78
2024/03/24 06:34:53;;;;;;;16.80;10.70;;;;;;;23.62;35.46;96454.16;4945424;28;20586;-78
2024/03/24 06:37:19;;;;;;;11.75;8.10;;;;;;;23.60;35.46;96464.41;4971075;28;20098;-76
2024/03/24 06:39:44;;;;;;;8.63;5.18;;;;;;;23.97;34.24;96458.47;4943890;28;20045;-80
2024/03/24 06:42:10;;;;;;;34.00;20.13;;;;;;;24.65;33.41;96451.09;4960745;28;20094;-79
2024/03/24 06:44:37;;;;;;;16.60;10.40;;;;;;;24.76;33.58;96451.28;4934752;28;20137;-80
2024/03/24 06:47:04;;;;;;;15.05;9.38;;;;;;;25.44;32.74;96451.06;4934766;28;20034;-77
2024/03/24 06:49:30;;;;;;;5.88;4.03;;;;;;;25.47;32.57;96450.63;4945364;28;20093;-77
2024/03/24 06:51:55;;;;;;;12.48;7.47;;;;;;;25.12;32.53;96441.84;4970499;28;20034;-76
2024/03/24 06:54:21;;;;;;;8.15;5.40;;;;;;;24.88;33.11;96443.34;4954212;28;20045;-77
2024/03/24 06:56:46;;;;;;;6.50;4.35;;;;;;;25.27;32.75;96440.56;4952487;28;20155;-77
2024/03/24 06:59:12;;;;;;;5.22;3.97;;;;;;;25.11;33.13;96440.16;4933408;28;20026;-77
2024/03/24 07:01:38;;;;;;;6.25;3.78;;;;;;;25.56;32.71;96439.28;4971573;28;20135;-76
2024/03/24 07:04:04;;;;;;;11.68;5.45;;;;;;;25.85;32.59;96451.59;4955078;28;20039;-77
2024/03/24 07:06:30;;;;;;;15.45;4.47;;;;;;;25.83;31.90;96442.75;4952417;28;20502;-76
2024/03/24 07:08:56;;;;;;;15.50;9.48;;;;;;;26.15;31.82;96433.53;4934989;28;20031;-74
2024/03/24 07:11:22;;;;;;;6.63;4.40;;;;;;;26.80;31.10;96426.78;4951009;28;20053;-74
2024/03/24 07:13:50;;;;;;;6.20;3.70;;;;;;;27.29;30.80;96419.56;4950878;28;20038;-75
2024/03/24 07:16:16;;;;;;;25.35;18.00;;;;;;;27.88;30.66;96432.69;4951007;28;20053;-75
2024/03/24 07:18:41;;;;;;;6.80;4.38;;;;;;;28.16;29.59;96424.72;4951002;28;20031;-75
2024/03/24 07:21:07;;;;;;;13.93;5.07;;;;;;;27.73;30.21;96419.34;4934635;28;20102;-74
2024/03/24 07:23:33;;;;;;;4.88;3.70;;;;;;;27.67;29.93;96416.66;4951001;28;20059;-75
2024/03/24 07:25:59;;;;;;;8.00;4.90;;;;;;;28.16;29.86;96407.38;4950310;28;20118;-74
2024/03/24 07:28:25;;;;;;;7.32;4.70;;;;;;;27.40;30.11;96411.44;4950539;28;20126;-78
2024/03/24 07:30:50;;;;;;;7.47;4.75;;;;;;;27.92;29.95;96403.66;4950871;28;20035;-76
2024/03/24 07:33:16;;;;;;;10.02;4.97;;;;;;;27.30;30.55;96397.38;4939769;28;20034;-78
2024/03/24 07:35:42;;;;;;;7.43;5.07;;;;;;;27.49;30.26;96402.91;4969966;28;20026;-77
2024/03/24 07:38:08;;;;;;;6.40;4.18;;;;;;;27.51;29.88;96395.28;4969805;28;20384;-76
2024/03/24 07:40:34;;;;;;;5.30;3.67;;;;;;;28.15;28.98;96391.97;4970015;28;20030;-76
2024/03/24 07:42:59;;;;;;;6.57;4.20;;;;;;;28.24;29.23;96383.13;4952303;28;20514;-76
2024/03/24 07:45:25;;;;;;;8.23;5.15;;;;;;;26.97;30.38;96376.81;4951560;28;20035;-76
2024/03/24 07:47:51;;;;;;;6.28;4.75;;;;;;;27.90;29.81;96386.56;4934508;28;20118;-77
2024/03/24 07:50:17;;;;;;;7.28;4.65;;;;;;;28.29;29.31;96388.78;4950629;28;20037;-76
2024/03/24 07:52:43;;;;;;;6.53;3.85;;;;;;;27.94;29.75;96380.34;4942200;28;20035;-76
2024/03/24 07:55:08;;;;;;;8.68;5.10;;;;;;;28.82;29.22;96374.22;4952642;28;20046;-75
2024/03/24 07:57:34;;;;;;;6.13;4.20;;;;;;;28.80;28.37;96368.09;4934193;29;20035;-77
2024/03/24 08:00:00;;;;;;;6.82;4.90;;;;;;;28.34;28.67;96366.91;4965651;28;20463;-76
2024/03/24 08:02:26;;;;;;;7.75;4.65;;;;;;;28.82;28.36;96360.44;4970929;28;20054;-77
2024/03/24 08:04:51;;;;;;;7.80;4.15;;;;;;;28.96;28.40;96370.16;4970811;28;20514;-77
2024/03/24 08:07:17;;;;;;;5.47;3.83;;;;;;;29.43;27.99;96363.56;4969220;28;20031;-75
2024/03/24 08:09:42;;;;;;;6.45;3.92;;;;;;;29.12;28.04;96343.81;4957429;28;20046;-75
2024/03/24 08:12:08;;;;;;;4.70;3.70;;;;;;;29.26;27.90;96356.25;4969919;28;20085;-74
2024/03/24 08:14:34;;;;;;;6.68;3.65;;;;;;;30.10;27.08;96355.59;4956069;28;20038;-75
2024/03/24 08:16:59;;;;;;;6.95;4.32;;;;;;;28.22;29.17;96352.28;4951046;28;20039;-74
2024/03/24 08:19:25;;;;;;;10.00;5.22;;;;;;;28.67;28.08;96351.81;4949482;28;20086;-76
2024/03/24 08:21:51;;;;;;;8.73;6.15;;;;;;;29.04;28.37;96342.22;4950047;28;20076;-75
2024/03/24 08:24:17;;;;;;;11.68;5.90;;;;;;;29.58;27.84;96341.84;4952627;28;20027;-76
2024/03/24 08:26:43;;;;;;;9.45;5.90;;;;;;;30.04;27.58;96346.41;4949836;28;20035;-75
2024/03/24 08:29:09;;;;;;;7.35;4.88;;;;;;;29.72;27.67;96345.16;4963571;28;20051;-76
2024/03/24 08:31:35;;;;;;;6.90;5.05;;;;;;;30.45;26.99;96330.63;4969916;28;20023;-76
2024/03/24 08:34:00;;;;;;;8.65;4.85;;;;;;;29.88;27.50;96330.63;4968039;28;20125;-75
2024/03/24 08:36:26;;;;;;;6.47;4.45;;;;;;;30.29;27.16;96323.13;4954926;28;20043;-77
2024/03/24 08:38:52;;;;;;;5.10;3.97;;;;;;;30.91;26.62;96316.47;4945482;29;20582;-77
2024/03/24 08:41:18;;;;;;;5.80;4.07;;;;;;;30.29;27.10;96323.97;4941123;28;20114;-74
2024/03/24 08:43:43;;;;;;;6.97;4.53;;;;;;;29.02;28.28;96322.38;4949253;28;20059;-75
2024/03/24 08:46:09;;;;;;;7.20;4.20;;;;;;;29.26;28.15;96328.72;4949085;28;20504;-74
2024/03/24 08:48:35;;;;;;;5.25;3.92;;;;;;;29.68;27.61;96319.16;4949440;28;20062;-73
2024/03/24 08:51:00;;;;;;;9.00;5.82;;;;;;;30.41;27.70;96310.97;4948982;28;20565;-73
2024/03/24 08:53:26;;;;;;;8.75;5.68;;;;;;;31.23;26.93;96302.88;4953005;28;20578;-75
2024/03/24 08:55:52;;;;;;;9.88;4.80;;;;;;;31.76;26.56;96306.91;4952002;28;20038;-77
2024/03/24 08:58:17;;;;;;;8.00;5.20;;;;;;;31.39;26.50;96296.47;4968364;28;20391;-77
2024/03/24 09:00:45;;;;;;;9.20;5.65;;;;;;;31.08;27.45;96289.69;4971069;28;20030;-75
2024/03/24 09:03:12;;;;;;;9.95;5.03;;;;;;;31.68;25.92;96275.88;4971161;28;20026;-76
2024/03/24 09:05:38;;;;;;;7.50;4.25;;;;;;;31.42;26.38;96282.13;4962975;28;20027;-75
2024/03/24 09:08:04;;;;;;;5.35;3.50;;;;;;;30.22;26.68;96276.38;4943659;29;20057;-74
2024/03/24 09:10:29;;;;;;;10.18;5.22;;;;;;;30.56;26.97;96275.31;4948664;28;20066;-76
2024/03/24 09:12:55;;;;;;;8.32;4.03;;;;;;;29.86;27.52;96274.88;4935524;29;20062;-76
2024/03/24 09:15:21;;;;;;;6.47;4.53;;;;;;;30.35;27.21;96272.44;4951480;28;20034;-75
2024/03/24 09:17:46;;;;;;;6.28;4.10;;;;;;;30.66;26.50;96262.75;4952842;28;20027;-75
2024/03/24 09:20:15;;;;;;;7.03;4.05;;;;;;;30.40;26.97;96269.78;4952529;28;20038;-75
2024/03/24 09:22:41;;;;;;;6.25;4.55;;;;;;;30.97;26.78;96265.78;4960865;28;20082;-76
2024/03/24 09:25:07;;;;;;;12.80;6.75;;;;;;;31.23;25.84;96249.50;4951432;28;20055;-76
2024/03/24 09:27:33;;;;;;;7.15;4.10;;;;;;;31.25;25.94;96245.44;4953774;28;20046;-76
2024/03/24 09:29:59;;;;;;;6.15;3.90;;;;;;;31.59;25.56;96249.72;4954501;28;20031;-75
2024/03/24 09:32:25;;;;;;;8.70;5.32;;;;;;;32.14;25.82;96249.53;4969972;28;20026;-74
2024/03/24 09:34:53;;;;;;;7.30;4.68;;;;;;;32.48;25.58;96254.81;4970379;28;20026;-76
2024/03/24 09:37:19;;;;;;;10.93;3.88;;;;;;;33.15;25.54;96250.38;4970356;28;20058;-76
2024/03/24 09:39:44;;;;;;;7.32;4.53;;;;;;;31.72;25.72;96242.16;4971596;28;20038;-74
2024/03/24 09:42:13;;;;;;;7.00;4.47;;;;;;;30.20;27.18;96241.84;4971779;28;20162;-75
2024/03/24 09:44:42;;;;;;;8.13;4.25;;;;;;;29.92;27.14;96237.19;4970585;28;20388;-76
2024/03/24 09:47:07;;;;;;;6.28;4.53;;;;;;;29.78;27.56;96238.56;4970664;28;20106;-76
2024/03/24 09:49:35;;;;;;;7.15;3.80;;;;;;;30.25;26.96;96237.22;4971315;28;20169;-76
2024/03/24 09:52:01;;;;;;;5.55;4.50;;;;;;;29.82;27.50;96251.63;4971620;28;20023;-76
2024/03/24 09:54:27;;;;;;;7.90;4.65;;;;;;;29.75;27.25;96241.81;4970149;28;20034;-75
2024/03/24 09:56:53;;;;;;;10.10;5.30;;;;;;;29.77;27.25;96239.66;4965056;28;20377;-75
2024/03/24 09:59:19;;;;;;;14.40;4.25;;;;;;;30.23;27.06;96236.66;4951097;28;20038;-75
2024/03/24 10:01:47;;;;;;;9.35;4.40;;;;;;;28.96;28.30;96240.72;4933027;28;20027;-75
2024/03/24 10:04:14;;;;;;;7.03;3.78;;;;;;;28.97;27.59;96246.00;4950886;28;20553;-76
2024/03/24 10:06:40;;;;;;;9.40;4.55;;;;;;;29.70;27.64;96245.31;4960097;28;20400;-76
2024/03/24 10:09:05;;;;;;;6.97;4.15;;;;;;;30.64;26.87;96229.88;4952315;28;20023;-76
2024/03/24 10:11:35;;;;;;;7.70;4.50;;;;;;;31.34;26.83;96224.53;4950835;28;20115;-74
2024/03/24 10:14:03;;;;;;;6.50;4.82;;;;;;;31.78;26.33;96216.22;4950924;28;20058;-75
2024/03/24 10:16:30;;;;;;;7.03;4.35;;;;;;;30.87;26.14;96209.50;4969755;28;20022;-75
2024/03/24 10:18:56;;;;;;;8.48;4.00;;;;;;;31.14;25.99;96216.81;4970148;28;20113;-75
2024/03/24 10:21:22;;;;;;;6.32;4.13;;;;;;;31.66;25.96;96211.66;4953933;28;20122;-76
2024/03/24 10:23:47;;;;;;;4.28;3.58;;;;;;;30.45;26.66;96189.84;4971130;28;20562;-75
2024/03/24 10:26:22;;;;;;;5.70;3.90;;;;;;;31.41;26.04;96203.03;4970373;28;20026;-76
2024/03/24 10:28:49;;;;;;;6.28;3.92;;;;;;;32.00;25.39;96197.59;4969832;28;20055;-74
2024/03/24 10:31:15;;;;;;;5.90;4.15;;;;;;;30.71;25.93;96188.28;4969957;28;20039;-75
2024/03/24 10:33:42;;;;;;;5.65;3.95;;;;;;;30.16;26.59;96180.78;4969869;28;20035;-75
2024/03/24 10:36:08;;;;;;;6.53;4.50;;;;;;;30.58;26.38;96190.31;4970109;28;20547;-74
2024/03/24 10:38:38;;;;;;;12.55;4.30;;;;;;;31.16;25.87;96200.81;4971920;28;20022;-73
2024/03/24 10:41:05;;;;;;;19.05;11.82;;;;;;;30.35;26.62;96178.59;4957792;28;20030;-75
2024/03/24 10:43:31;;;;;;;8.30;6.05;;;;;;;29.08;27.34;96193.84;4973662;28;20026;-75
2024/03/24 10:45:58;;;;;;;4.47;3.35;;;;;;;28.76;27.47;96193.47;4965400;28;20525;-75
2024/03/24 10:48:54;;;;;;;8.00;4.35;;;;;;;28.80;27.31;96173.47;4968382;28;20027;-76
2024/03/24 10:51:21;;;;;;;4.60;3.47;;;;;;;28.13;28.21;96185.91;4955239;28;20031;-75
2024/03/24 10:53:48;;;;;;;5.90;4.18;;;;;;;27.01;29.29;96178.47;4953897;28;20042;-75
2024/03/24 10:56:15;;;;;;;5.57;3.95;;;;;;;27.94;28.56;96170.56;4954231;28;20086;-75
2024/03/24 10:58:42;;;;;;;6.32;3.92;;;;;;;28.29;28.59;96184.38;4954218;28;20027;-75
2024/03/24 11:01:08;;;;;;;8.48;4.05;;;;;;;27.70;29.23;96177.09;4937839;28;21494;-76
2024/03/24 11:03:35;;;;;;;10.13;4.75;;;;;;;28.75;28.61;96176.13;4938068;29;20506;-76
2024/03/24 11:06:02;;;;;;;10.23;3.97;;;;;;;27.75;28.37;96156.06;4947229;28;20118;-75
2024/03/24 11:08:27;;;;;;;9.75;4.00;;;;;;;28.23;28.45;96164.16;4973160;28;20081;-75
2024/03/24 11:11:01;;;;;;;14.05;3.60;;;;;;;28.85;27.60;96176.34;4973167;28;20039;-75
2024/03/24 11:13:33;;;;;;;7.40;4.18;;;;;;;29.14;27.23;96151.56;4965244;28;20022;-76
2024/03/24 11:15:59;;;;;;;5.88;3.85;;;;;;;28.43;27.35;96159.13;4956728;28;20034;-76
2024/03/24 11:18:26;;;;;;;5.55;3.58;;;;;;;28.23;27.52;96155.91;4970007;28;20066;-76
2024/03/24 11:20:53;;;;;;;6.72;5.03;;;;;;;27.68;28.12;96138.03;4953905;28;20059;-78
2024/03/24 11:23:21;;;;;;;8.15;4.40;;;;;;;28.05;28.14;96147.78;4961895;28;20041;-77
2024/03/24 11:25:50;;;;;;;5.40;4.13;;;;;;;29.02;26.63;96143.34;4953719;28;20093;-75